Terminal Aerodrome Forecast
Issued by NWS

Home | Current Version | Previous Version | Text Only | Print | Product List | Glossary On
Versions: 1 2 3 4 5 6 7 8 9 10 11 12 13 14 15
000
FTUS44 KLZK 021100
TAFLIT
TAF
KLIT 021120Z 0212/0312 17007KT P6SM SCT015
      TEMPO 0212/0214 5SM BR BKN015
     FM021400 18009KT P6SM BKN025 OVC050
     FM021800 19008G16KT P6SM VCTS BKN050CB
      TEMPO 0301/0304 27015G25KT 2SM +TSRA BR BKN015CB
     FM030600 27009KT 5SM BR VCSH OVC025
     FM031000 30010KT P6SM OVC050=

USA.gov is the U.S. government's official web portal to all federal, state and local government web resources and services.